Time;durP1;ratioP1;P1;durP2;ratioP2;P2;SDS_P1;SDS_P2;PMS_P1;PMS_P2;Temp;Humidity;BMP_temperature;BMP_pressure;BME280_temperature;BME280_humidity;BME280_pressure;Samples;Min_cycle;Max_cycle;Signal;HPM_P1;HPM_P2
2023/03/13 00:00:15;;;;;;;14.23;4.55;;;;;;;12.68;50.54;99865.09;685602;28;1315;-82
2023/03/13 00:00:35;;;;;;;15.00;4.55;;;;;;;12.68;50.60;99872.94;691026;28;1302;-82
2023/03/13 00:00:58;;;;;;;12.83;4.40;;;;;;;12.69;50.85;99864.22;688095;28;1255;-82
2023/03/13 00:01:20;;;;;;;15.57;4.88;;;;;;;12.64;50.40;99861.59;682880;28;1117;-81
2023/03/13 00:01:45;;;;;;;17.20;4.78;;;;;;;12.56;50.55;99855.44;683109;28;1236;-82
2023/03/13 00:02:05;;;;;;;15.90;4.38;;;;;;;12.66;50.99;99869.47;685366;28;1267;-82
2023/03/13 00:02:26;;;;;;;14.27;3.93;;;;;;;12.61;50.76;99857.22;688404;28;1275;-83
2023/03/13 00:02:46;;;;;;;14.80;4.30;;;;;;;12.59;50.65;99853.72;688434;28;1087;-82
2023/03/13 00:03:07;;;;;;;13.67;4.40;;;;;;;12.67;50.93;99852.88;685685;28;1371;-82
2023/03/13 00:03:28;;;;;;;13.02;4.82;;;;;;;12.72;50.52;99862.50;685760;28;819;-82
2023/03/13 00:03:49;;;;;;;11.57;4.90;;;;;;;12.64;50.66;99850.25;683035;28;1081;-82
2023/03/13 00:04:09;;;;;;;14.30;5.07;;;;;;;12.66;50.54;99852.00;688234;28;1425;-82
2023/03/13 00:04:30;;;;;;;13.57;4.50;;;;;;;12.65;50.76;99859.84;691168;28;1421;-82
2023/03/13 00:04:51;;;;;;;13.27;4.50;;;;;;;12.65;50.74;99846.78;685465;28;1307;-82
2023/03/13 00:05:12;;;;;;;12.82;4.10;;;;;;;12.68;50.56;99852.00;685603;28;1303;-83
2023/03/13 00:05:34;;;;;;;11.85;3.90;;;;;;;12.68;50.98;99862.47;683020;29;1178;-82
2023/03/13 00:05:56;;;;;;;11.43;4.07;;;;;;;12.57;50.81;99839.75;688252;28;1146;-81
2023/03/13 00:06:18;;;;;;;11.52;4.10;;;;;;;12.59;50.99;99840.63;688281;28;1110;-82
2023/03/13 00:06:39;;;;;;;11.23;4.35;;;;;;;12.62;51.05;99852.88;688270;28;1083;-82
2023/03/13 00:06:59;;;;;;;11.18;4.25;;;;;;;12.54;50.88;99844.97;685222;28;1370;-82
2023/03/13 00:07:20;;;;;;;12.93;4.70;;;;;;;12.58;50.67;99851.97;685725;28;1186;-82
2023/03/13 00:07:40;;;;;;;17.30;5.10;;;;;;;12.63;51.05;99849.38;685688;28;1325;-82
2023/03/13 00:08:01;;;;;;;18.05;5.35;;;;;;;12.54;51.09;99837.09;690734;28;1193;-83
2023/03/13 00:08:22;;;;;;;15.85;4.85;;;;;;;12.59;50.89;99853.72;688367;28;1123;-82
2023/03/13 00:08:43;;;;;;;15.70;4.68;;;;;;;12.54;50.87;99838.88;685750;28;811;-82
2023/03/13 00:09:07;;;;;;;15.90;4.50;;;;;;;12.53;51.12;99832.75;680391;29;1415;-82
2023/03/13 00:09:28;;;;;;;16.55;4.50;;;;;;;12.58;51.30;99851.09;680433;29;847;-82
2023/03/13 00:09:48;;;;;;;16.23;4.45;;;;;;;12.55;51.10;99846.69;682899;29;1230;-82
2023/03/13 00:10:09;;;;;;;17.90;4.70;;;;;;;12.50;51.10;99832.75;688157;28;1144;-82
2023/03/13 00:10:30;;;;;;;16.13;4.63;;;;;;;12.54;51.13;99847.56;680306;28;1305;-82
2023/03/13 00:10:50;;;;;;;15.60;4.50;;;;;;;12.53;51.17;99830.13;680325;28;1177;-82
2023/03/13 00:11:13;;;;;;;13.98;4.20;;;;;;;12.60;51.36;99845.00;682820;28;1276;-82
2023/03/13 00:11:44;;;;;;;13.43;4.22;;;;;;;12.53;51.25;99842.34;682967;28;1357;-82
2023/03/13 00:12:05;;;;;;;12.10;4.50;;;;;;;12.60;51.00;99845.00;680511;28;1167;-82
2023/03/13 00:12:25;;;;;;;11.02;4.15;;;;;;;12.61;50.94;99841.50;688067;28;1198;-82
2023/03/13 00:12:46;;;;;;;12.60;4.25;;;;;;;12.56;50.92;99843.25;685536;28;1207;-82
2023/03/13 00:13:07;;;;;;;14.73;4.33;;;;;;;12.57;51.01;99837.13;690761;28;1117;-82
2023/03/13 00:13:28;;;;;;;16.48;4.78;;;;;;;12.61;51.08;99846.75;691055;28;1501;-82
2023/03/13 00:13:53;;;;;;;15.10;4.50;;;;;;;12.61;51.14;99843.25;688297;28;1090;-82
2023/03/13 00:14:14;;;;;;;11.75;3.80;;;;;;;12.60;51.17;99845.00;688172;28;1414;-83
2023/03/13 00:14:34;;;;;;;11.10;3.77;;;;;;;12.60;50.93;99834.53;682987;28;1290;-82
2023/03/13 00:14:55;;;;;;;12.88;4.50;;;;;;;12.58;50.84;99832.75;685116;28;1911;-83
2023/03/13 00:15:16;;;;;;;16.23;5.32;;;;;;;12.59;50.74;99826.66;683010;28;988;-82
2023/03/13 00:15:36;;;;;;;17.20;5.33;;;;;;;12.62;50.72;99839.78;683030;28;1127;-82
2023/03/13 00:16:05;;;;;;;14.32;4.80;;;;;;;12.68;50.92;99841.53;682875;28;1041;-82
2023/03/13 00:16:26;;;;;;;13.93;4.60;;;;;;;12.61;50.71;99836.28;677220;29;1486;-82
2023/03/13 00:16:47;;;;;;;13.55;4.40;;;;;;;12.72;50.67;99843.31;677580;29;1187;-82
2023/03/13 00:17:08;;;;;;;13.00;4.43;;;;;;;12.72;51.19;99843.31;677672;29;1013;-82
2023/03/13 00:17:29;;;;;;;10.98;4.40;;;;;;;12.72;50.87;99836.31;682993;28;1162;-82
2023/03/13 00:17:49;;;;;;;13.40;4.63;;;;;;;12.68;51.01;99828.44;688325;28;1123;-82
2023/03/13 00:18:10;;;;;;;13.43;4.30;;;;;;;12.71;50.83;99841.53;687975;28;1230;-81
2023/03/13 00:18:31;;;;;;;12.93;3.95;;;;;;;12.67;51.11;99829.31;685684;28;804;-82
2023/03/13 00:18:53;;;;;;;11.95;3.80;;;;;;;12.67;51.20;99829.31;682807;28;1131;-82
2023/03/13 00:19:14;;;;;;;12.40;4.00;;;;;;;12.66;51.08;99827.59;682883;28;1057;-82
2023/03/13 00:19:35;;;;;;;14.15;4.22;;;;;;;12.64;51.12;99824.09;688265;28;1220;-83
2023/03/13 00:19:55;;;;;;;12.63;4.47;;;;;;;12.72;51.03;99832.84;685632;28;1068;-82
2023/03/13 00:20:16;;;;;;;13.13;4.20;;;;;;;12.66;50.93;99823.19;682852;28;1058;-82
2023/03/13 00:20:37;;;;;;;12.13;4.00;;;;;;;12.68;50.93;99829.34;688281;28;1268;-82
2023/03/13 00:21:02;;;;;;;14.23;3.72;;;;;;;12.70;50.90;99826.72;690911;28;989;-82
2023/03/13 00:21:25;;;;;;;13.18;4.00;;;;;;;12.65;51.00;99812.75;688242;28;1092;-82
2023/03/13 00:21:45;;;;;;;12.20;4.10;;;;;;;12.73;51.06;99829.34;686874;28;1279;-82
2023/03/13 00:22:06;;;;;;;10.95;4.13;;;;;;;12.73;51.28;99822.34;690811;28;1311;-82
2023/03/13 00:22:26;;;;;;;14.25;4.90;;;;;;;12.75;50.95;99825.88;688247;28;1431;-82
2023/03/13 00:22:47;;;;;;;14.03;5.20;;;;;;;12.68;50.98;99811.03;682877;28;1141;-82
2023/03/13 00:23:08;;;;;;;13.77;5.25;;;;;;;12.80;50.73;99822.38;682886;28;1174;-82
2023/03/13 00:23:29;;;;;;;12.32;4.63;;;;;;;12.75;50.99;99819.75;685731;28;768;-82
2023/03/13 00:23:50;;;;;;;11.77;4.28;;;;;;;12.75;50.74;99822.38;685517;28;1040;-82
2023/03/13 00:24:11;;;;;;;11.80;4.22;;;;;;;12.75;50.99;99817.13;685392;28;1029;-81
2023/03/13 00:24:32;;;;;;;15.65;4.57;;;;;;;12.72;51.01;99818.00;682925;28;1220;-82
2023/03/13 00:24:53;;;;;;;18.63;4.88;;;;;;;12.74;51.02;99821.47;685678;28;1161;-82
2023/03/13 00:25:14;;;;;;;20.00;5.00;;;;;;;12.77;51.16;99812.78;682798;28;1287;-82
2023/03/13 00:25:34;;;;;;;17.52;5.35;;;;;;;12.75;51.15;99811.91;685727;28;1279;-82
2023/03/13 00:25:59;;;;;;;14.23;5.03;;;;;;;12.75;51.06;99817.13;682858;29;1097;-83
2023/03/13 00:26:22;;;;;;;15.13;4.90;;;;;;;12.78;51.09;99826.75;685490;28;1341;-81
2023/03/13 00:26:42;;;;;;;12.60;4.30;;;;;;;12.74;50.92;99821.47;688192;28;1181;-81
2023/03/13 00:27:05;;;;;;;10.27;4.28;;;;;;;12.75;50.86;99819.75;693313;28;1365;-82
2023/03/13 00:27:26;;;;;;;10.15;4.40;;;;;;;12.74;50.85;99811.00;685588;28;1246;-82
2023/03/13 00:27:46;;;;;;;13.43;4.67;;;;;;;12.74;51.07;99805.78;685556;28;1186;-82
2023/03/13 00:28:07;;;;;;;14.02;4.78;;;;;;;12.75;51.25;99818.03;688127;28;1311;-82
2023/03/13 00:28:30;;;;;;;11.70;4.35;;;;;;;12.83;51.04;99818.03;688269;28;806;-82
2023/03/13 00:28:52;;;;;;;10.45;4.13;;;;;;;12.84;50.86;99825.03;685718;28;1123;-82
2023/03/13 00:29:13;;;;;;;12.32;4.32;;;;;;;12.81;50.85;99814.56;685413;28;1092;-82
2023/03/13 00:29:33;;;;;;;13.80;4.90;;;;;;;12.75;51.16;99801.44;685791;28;740;-82
2023/03/13 00:29:55;;;;;;;14.93;5.30;;;;;;;12.86;51.06;99820.66;690777;28;1397;-82
2023/03/13 00:30:16;;;;;;;14.48;5.20;;;;;;;12.77;51.17;99798.81;685534;28;1135;-82
2023/03/13 00:30:37;;;;;;;14.35;4.95;;;;;;;12.84;51.13;99819.78;683014;28;1151;-82
2023/03/13 00:31:15;;;;;;;13.32;4.38;;;;;;;12.83;51.00;99810.19;685400;28;1272;-82
2023/03/13 00:31:36;;;;;;;13.60;4.18;;;;;;;12.83;51.17;99820.66;688366;28;851;-82
2023/03/13 00:31:56;;;;;;;13.48;4.32;;;;;;;12.84;51.26;99824.16;688228;28;1190;-82
2023/03/13 00:32:17;;;;;;;14.77;4.33;;;;;;;12.81;50.79;99800.56;685554;28;1044;-81
2023/03/13 00:32:41;;;;;;;15.20;4.30;;;;;;;12.86;50.91;99798.84;691095;28;779;-82
2023/03/13 00:33:02;;;;;;;15.23;4.38;;;;;;;12.83;50.97;99794.47;690820;28;996;-82
2023/03/13 00:33:22;;;;;;;17.27;4.47;;;;;;;12.82;51.03;99802.31;685665;28;1354;-82
2023/03/13 00:33:45;;;;;;;14.55;4.50;;;;;;;12.87;50.98;99806.72;683069;28;1089;-83
2023/03/13 00:34:06;;;;;;;14.30;4.45;;;;;;;12.79;51.13;99792.69;685459;28;1081;-81
2023/03/13 00:34:44;;;;;;;12.33;4.40;;;;;;;12.81;50.88;99790.09;685691;28;815;-82
2023/03/13 00:35:05;;;;;;;12.02;4.28;;;;;;;12.82;51.01;99791.84;690595;28;1969;-82
2023/03/13 00:35:26;;;;;;;12.07;4.13;;;;;;;12.86;51.39;99804.94;688245;28;1065;-81
2023/03/13 00:35:47;;;;;;;14.45;4.53;;;;;;;12.85;50.84;99803.19;677686;29;1053;-83
2023/03/13 00:36:14;;;;;;;16.02;4.93;;;;;;;12.85;51.16;99803.19;682877;28;1216;-82
2023/03/13 00:36:35;;;;;;;13.80;4.35;;;;;;;12.84;50.80;99790.97;682933;28;855;-82
2023/03/13 00:36:55;;;;;;;13.63;4.40;;;;;;;12.83;51.17;99796.19;690758;28;996;-82
2023/03/13 00:37:17;;;;;;;15.63;5.38;;;;;;;12.85;51.18;99797.97;685533;28;996;-82
2023/03/13 00:37:38;;;;;;;15.98;5.20;;;;;;;12.86;50.90;99798.84;685618;28;1271;-82
2023/03/13 00:37:58;;;;;;;13.75;4.45;;;;;;;12.87;51.01;99798.88;685446;28;1214;-82
2023/03/13 00:38:19;;;;;;;11.70;3.80;;;;;;;12.84;51.10;99790.97;688202;28;1158;-82
2023/03/13 00:38:40;;;;;;;12.15;4.10;;;;;;;12.85;51.02;99797.97;682929;29;1186;-82
2023/03/13 00:39:03;;;;;;;12.18;4.40;;;;;;;12.87;51.10;99801.47;680009;29;1609;-81
2023/03/13 00:39:24;;;;;;;11.70;4.50;;;;;;;12.83;51.19;99791.84;682973;28;813;-82
2023/03/13 00:39:44;;;;;;;10.55;4.40;;;;;;;12.89;50.82;99797.13;685710;28;566;-82
2023/03/13 00:40:07;;;;;;;12.63;4.70;;;;;;;12.94;50.90;99810.25;684622;28;1101;-82
2023/03/13 00:40:27;;;;;;;15.40;4.90;;;;;;;12.89;51.09;99794.50;688258;28;1252;-82
2023/03/13 00:40:48;;;;;;;16.33;5.10;;;;;;;12.98;51.21;99803.28;685579;28;1252;-83
2023/03/13 00:41:11;;;;;;;11.17;4.80;;;;;;;12.93;51.13;99798.03;682896;29;1330;-82
2023/03/13 00:41:33;;;;;;;9.77;4.80;;;;;;;12.93;50.92;99790.19;688204;28;880;-82
2023/03/13 00:41:53;;;;;;;13.10;5.20;;;;;;;12.91;51.05;99785.78;688201;28;980;-82
2023/03/13 00:42:15;;;;;;;15.00;4.90;;;;;;;12.90;51.37;99790.13;680168;29;1209;-82
2023/03/13 00:42:35;;;;;;;12.83;4.43;;;;;;;12.95;51.38;99792.78;685550;28;1157;-82
2023/03/13 00:42:56;;;;;;;11.27;3.90;;;;;;;12.86;51.56;99776.16;691097;28;1245;-82
2023/03/13 00:43:17;;;;;;;9.80;3.78;;;;;;;12.86;51.43;99772.66;688185;28;1295;-82
2023/03/13 00:43:39;;;;;;;10.68;3.85;;;;;;;12.92;51.59;99787.50;682999;28;1252;-82
2023/03/13 00:44:00;;;;;;;11.48;4.10;;;;;;;12.85;51.74;99791.88;682695;29;1373;-81
2023/03/13 00:44:20;;;;;;;11.75;4.10;;;;;;;12.88;51.55;99792.75;680313;29;1073;-82
2023/03/13 00:44:41;;;;;;;11.23;4.03;;;;;;;12.87;51.60;99798.88;682958;28;906;-83
2023/03/13 00:45:02;;;;;;;11.27;4.10;;;;;;;12.87;51.65;99793.63;685353;28;1115;-82
2023/03/13 00:45:23;;;;;;;14.38;4.22;;;;;;;12.85;51.68;99786.63;685641;28;818;-83
2023/03/13 00:45:43;;;;;;;15.05;4.45;;;;;;;12.84;51.58;99785.75;688303;28;764;-82
2023/03/13 00:46:04;;;;;;;16.00;4.60;;;;;;;12.91;51.53;99786.63;682600;28;1162;-82
2023/03/13 00:46:27;;;;;;;14.43;4.43;;;;;;;12.94;51.73;99796.28;688480;28;1134;-82
2023/03/13 00:46:48;;;;;;;13.55;4.10;;;;;;;12.87;51.92;99777.91;685286;28;1286;-81
2023/03/13 00:47:09;;;;;;;11.70;3.90;;;;;;;12.88;51.69;99777.03;680101;29;1177;-82
2023/03/13 00:47:29;;;;;;;14.00;4.30;;;;;;;12.87;51.76;99791.00;685528;28;1200;-82
2023/03/13 00:47:50;;;;;;;13.90;4.60;;;;;;;12.93;51.73;99778.78;682742;29;1185;-82
2023/03/13 00:48:10;;;;;;;13.63;4.72;;;;;;;12.92;51.60;99790.13;685425;28;1317;-82
2023/03/13 00:48:32;;;;;;;13.05;4.57;;;;;;;12.98;51.63;99784.94;685635;28;883;-82
2023/03/13 00:48:53;;;;;;;14.20;4.60;;;;;;;12.99;51.47;99784.06;688176;28;940;-82
2023/03/13 00:49:14;;;;;;;13.18;4.47;;;;;;;12.92;51.39;99777.03;688146;28;1043;-82
2023/03/13 00:49:50;;;;;;;12.47;4.77;;;;;;;13.04;51.37;99787.59;685734;28;818;-82
2023/03/13 00:50:10;;;;;;;11.00;4.43;;;;;;;13.00;51.46;99783.19;685373;28;1250;-82
2023/03/13 00:50:31;;;;;;;11.00;4.20;;;;;;;13.01;51.35;99785.84;683077;29;784;-82
2023/03/13 00:50:52;;;;;;;13.27;4.20;;;;;;;13.06;51.54;99774.47;685552;28;949;-81
2023/03/13 00:51:15;;;;;;;12.10;4.03;;;;;;;13.10;51.65;99782.34;685548;28;1120;-83
2023/03/13 00:51:35;;;;;;;13.50;4.10;;;;;;;13.04;51.35;99777.13;680442;29;839;-82
2023/03/13 00:51:56;;;;;;;11.30;4.00;;;;;;;13.09;51.35;99793.69;685595;28;965;-82
2023/03/13 00:52:16;;;;;;;11.73;4.20;;;;;;;13.04;51.48;99771.00;685435;28;1191;-82
2023/03/13 00:52:37;;;;;;;12.85;4.25;;;;;;;13.04;51.86;99778.84;688271;28;1383;-82
2023/03/13 00:53:01;;;;;;;13.07;4.57;;;;;;;13.04;51.93;99781.47;684983;28;1392;-83
2023/03/13 00:53:22;;;;;;;13.73;4.63;;;;;;;13.00;51.64;99770.09;688135;28;1270;-83
2023/03/13 00:53:43;;;;;;;12.82;4.53;;;;;;;12.99;51.97;99779.72;690990;28;843;-82
2023/03/13 00:54:04;;;;;;;13.23;4.60;;;;;;;12.93;51.87;99774.47;685300;28;1185;-82
2023/03/13 00:54:24;;;;;;;12.02;4.22;;;;;;;12.89;52.18;99759.56;685579;28;1267;-82
2023/03/13 00:54:45;;;;;;;12.35;4.70;;;;;;;12.93;52.19;99765.69;691054;28;1165;-82
2023/03/13 00:55:06;;;;;;;12.37;4.83;;;;;;;12.85;52.64;99776.16;687923;28;2003;-82
2023/03/13 00:55:26;;;;;;;12.52;4.68;;;;;;;12.76;53.04;99761.28;685523;28;1524;-81
2023/03/13 00:55:56;;;;;;;17.10;5.07;;;;;;;12.72;53.14;99764.78;685474;28;1204;-81
2023/03/13 00:56:19;;;;;;;17.52;4.80;;;;;;;12.72;53.45;99770.03;685266;28;1012;-81
2023/03/13 00:56:40;;;;;;;14.32;4.50;;;;;;;12.66;53.89;99760.38;685655;28;835;-82
2023/03/13 00:57:00;;;;;;;12.53;4.37;;;;;;;12.69;53.79;99770.00;685145;28;1313;-82
2023/03/13 00:57:21;;;;;;;13.25;4.65;;;;;;;12.63;53.95;99754.25;685572;28;1166;-82
2023/03/13 00:57:41;;;;;;;12.25;4.65;;;;;;;12.58;54.25;99755.13;688393;28;913;-82
2023/03/13 00:58:02;;;;;;;12.07;4.90;;;;;;;12.63;54.25;99767.34;685420;28;1013;-82
2023/03/13 00:58:37;;;;;;;10.05;4.68;;;;;;;12.56;55.00;99769.97;685620;28;1224;-81
2023/03/13 00:59:00;;;;;;;12.20;4.85;;;;;;;12.45;54.91;99762.06;688086;28;1077;-82
2023/03/13 00:59:20;;;;;;;12.23;4.57;;;;;;;12.48;54.90;99769.06;688293;28;1084;-82
2023/03/13 00:59:41;;;;;;;13.00;4.60;;;;;;;12.46;54.95;99762.94;685619;28;1298;-82
2023/03/13 01:00:05;;;;;;;10.65;4.10;;;;;;;12.40;55.21;99742.00;690752;28;1150;-82
2023/03/13 01:00:25;;;;;;;13.98;4.53;;;;;;;12.33;55.09;99759.38;688295;28;902;-82
2023/03/13 01:00:46;;;;;;;13.27;4.50;;;;;;;12.37;55.51;99757.66;691007;28;985;-82
2023/03/13 01:01:07;;;;;;;13.82;4.80;;;;;;;12.29;55.40;99761.13;680122;29;1106;-82
2023/03/13 01:01:31;;;;;;;12.85;4.30;;;;;;;12.30;55.47;99756.78;685534;28;783;-82
2023/03/13 01:01:52;;;;;;;13.63;4.55;;;;;;;12.25;55.68;99748.91;690879;28;1059;-81
2023/03/13 01:02:12;;;;;;;13.38;4.80;;;;;;;12.25;55.96;99756.75;688111;28;1117;-82
2023/03/13 01:02:40;;;;;;;13.90;5.13;;;;;;;12.20;56.19;99761.06;688322;28;855;-82
2023/03/13 01:03:01;;;;;;;15.13;5.20;;;;;;;12.21;56.19;99762.81;687998;28;1389;-81
2023/03/13 01:03:25;;;;;;;14.27;4.70;;;;;;;12.19;56.64;99761.94;688316;28;1205;-82
2023/03/13 01:03:49;;;;;;;16.77;4.50;;;;;;;12.05;56.87;99751.44;690984;28;1079;-81
2023/03/13 01:04:25;;;;;;;14.90;4.47;;;;;;;12.07;57.34;99760.16;685079;28;1040;-81
2023/03/13 01:04:46;;;;;;;12.63;4.15;;;;;;;11.95;57.37;99739.13;685553;28;938;-82
2023/03/13 01:05:07;;;;;;;15.07;4.30;;;;;;;11.94;57.82;99748.75;682813;28;1300;-83
2023/03/13 01:05:27;;;;;;;15.20;4.30;;;;;;;11.97;57.89;99751.38;688388;28;720;-83
2023/03/13 01:05:58;;;;;;;14.10;4.33;;;;;;;11.92;57.92;99750.44;690980;28;1152;-82
2023/03/13 01:06:24;;;;;;;13.45;4.00;;;;;;;11.88;58.39;99746.97;693655;28;999;-83
2023/03/13 01:06:45;;;;;;;15.85;4.35;;;;;;;11.85;58.19;99746.09;682811;28;1367;-82
2023/03/13 01:07:05;;;;;;;17.27;4.93;;;;;;;11.84;58.41;99753.03;682703;29;1171;-82
2023/03/13 01:07:28;;;;;;;16.35;5.00;;;;;;;11.88;58.67;99748.69;682968;28;831;-84
2023/03/13 01:07:49;;;;;;;13.60;4.65;;;;;;;11.76;58.70;99733.81;688165;28;1371;-83
2023/03/13 01:08:10;;;;;;;12.55;4.30;;;;;;;11.77;58.83;99744.28;682665;28;1301;-84
2023/03/13 01:08:31;;;;;;;12.30;4.57;;;;;;;11.77;59.13;99746.00;683151;29;744;-83
2023/03/13 01:08:52;;;;;;;12.57;4.45;;;;;;;11.82;59.00;99753.88;685392;28;1306;-83
2023/03/13 01:09:15;;;;;;;18.65;5.20;;;;;;;11.70;59.35;99736.38;687959;28;1082;-84
2023/03/13 01:09:35;;;;;;;17.60;4.82;;;;;;;11.74;59.15;99730.31;683004;29;991;-84
2023/03/13 01:09:56;;;;;;;17.75;5.07;;;;;;;11.72;59.25;99738.16;685529;28;1072;-83
2023/03/13 01:10:17;;;;;;;13.65;4.60;;;;;;;11.70;59.56;99733.78;688096;28;1316;-83
2023/03/13 01:10:38;;;;;;;14.10;4.68;;;;;;;11.71;59.42;99733.78;688274;28;960;-84
2023/03/13 01:11:12;;;;;;;13.33;4.80;;;;;;;11.74;59.75;99744.25;682869;29;1010;-84
2023/03/13 01:11:35;;;;;;;14.00;5.10;;;;;;;11.71;59.83;99735.50;688392;28;858;-84
2023/03/13 01:11:56;;;;;;;15.05;4.72;;;;;;;11.68;60.13;99733.75;688123;28;1311;-83
2023/03/13 01:12:16;;;;;;;15.38;4.47;;;;;;;11.69;59.94;99735.53;685530;28;1088;-83
2023/03/13 01:12:37;;;;;;;11.30;3.97;;;;;;;11.73;60.33;99734.66;682953;28;1271;-84
2023/03/13 01:12:58;;;;;;;11.57;3.80;;;;;;;11.69;60.22;99735.53;685461;28;1196;-83
2023/03/13 01:13:18;;;;;;;13.75;4.40;;;;;;;11.67;60.37;99734.63;688152;28;1564;-83
2023/03/13 01:13:39;;;;;;;12.77;4.60;;;;;;;11.70;60.49;99734.66;688359;28;1014;-83
2023/03/13 01:14:05;;;;;;;11.23;4.43;;;;;;;11.70;60.89;99744.22;685664;28;1366;-83
2023/03/13 01:14:26;;;;;;;12.02;4.38;;;;;;;11.64;60.69;99729.34;688444;28;1227;-83
2023/03/13 01:14:49;;;;;;;15.27;4.93;;;;;;;11.58;60.96;99724.97;685746;28;1125;-81
2023/03/13 01:15:10;;;;;;;15.77;5.30;;;;;;;11.59;61.02;99723.22;683163;28;993;-84
2023/03/13 01:15:33;;;;;;;11.52;4.53;;;;;;;11.57;61.06;99724.94;683220;29;838;-83
2023/03/13 01:15:54;;;;;;;10.73;4.30;;;;;;;11.57;61.30;99723.22;683177;28;1040;-84
2023/03/13 01:16:18;;;;;;;10.95;4.10;;;;;;;11.55;61.34;99719.69;682810;28;1147;-83
2023/03/13 01:16:39;;;;;;;12.27;4.03;;;;;;;11.56;61.58;99720.59;688479;28;1385;-83
2023/03/13 01:16:59;;;;;;;13.00;4.00;;;;;;;11.59;61.32;99720.59;683069;28;1474;-85
2023/03/13 01:17:20;;;;;;;15.97;4.20;;;;;;;11.55;61.90;99722.31;688708;28;1113;-84
2023/03/13 01:17:43;;;;;;;15.07;4.13;;;;;;;11.51;61.94;99717.94;683407;28;1242;-84
2023/03/13 01:18:03;;;;;;;16.15;4.18;;;;;;;11.56;62.30;99720.59;688365;28;1387;-83
2023/03/13 01:18:24;;;;;;;14.90;3.90;;;;;;;11.50;61.92;99714.44;686027;28;1156;-83
2023/03/13 01:18:58;;;;;;;13.48;3.65;;;;;;;11.52;62.20;99720.56;683296;28;1175;-83
2023/03/13 01:19:18;;;;;;;12.75;3.90;;;;;;;11.48;62.22;99710.94;688454;28;1059;-83
2023/03/13 01:19:39;;;;;;;14.07;4.30;;;;;;;11.44;62.48;99696.09;683281;28;1365;-83
2023/03/13 01:20:00;;;;;;;14.60;4.47;;;;;;;11.45;62.50;99713.56;685867;28;1114;-84
2023/03/13 01:20:20;;;;;;;15.70;4.60;;;;;;;11.48;62.49;99708.34;683032;28;1306;-83
2023/03/13 01:20:41;;;;;;;13.97;4.10;;;;;;;11.47;62.69;99700.47;685961;28;1068;-84
2023/03/13 01:21:03;;;;;;;14.73;3.95;;;;;;;11.55;62.57;99719.69;688392;28;1125;-83
2023/03/13 01:21:24;;;;;;;13.27;4.20;;;;;;;11.47;62.59;99711.81;688417;28;842;-83
2023/03/13 01:21:45;;;;;;;14.18;4.40;;;;;;;11.52;62.85;99715.34;688659;28;1268;-83
2023/03/13 01:22:10;;;;;;;12.63;4.22;;;;;;;11.44;62.91;99701.31;682907;28;1116;-83
2023/03/13 01:22:31;;;;;;;16.23;4.18;;;;;;;11.46;63.02;99703.97;685689;28;1321;-83
2023/03/13 01:22:53;;;;;;;16.15;4.47;;;;;;;11.46;62.88;99694.41;688317;28;1550;-84
2023/03/13 01:23:14;;;;;;;13.77;4.20;;;;;;;11.55;62.83;99708.38;690853;28;1016;-84
2023/03/13 01:23:35;;;;;;;10.70;3.92;;;;;;;11.56;62.86;99708.38;691136;28;1389;-83
2023/03/13 01:23:56;;;;;;;11.00;3.72;;;;;;;11.51;63.17;99712.72;688434;28;1177;-83
2023/03/13 01:24:19;;;;;;;11.33;4.00;;;;;;;11.54;62.65;99706.66;689141;28;1151;-83
2023/03/13 01:24:39;;;;;;;14.55;4.07;;;;;;;11.54;62.95;99706.66;685740;28;810;-84
2023/03/13 01:25:00;;;;;;;14.43;4.20;;;;;;;11.56;63.17;99707.53;690796;28;1247;-83
2023/03/13 01:25:21;;;;;;;14.93;4.27;;;;;;;11.58;63.34;99714.50;690952;28;1137;-83
2023/03/13 01:25:41;;;;;;;14.80;4.22;;;;;;;11.55;63.17;99708.38;688221;28;1176;-84
2023/03/13 01:26:05;;;;;;;14.77;4.20;;;;;;;11.61;63.40;99719.75;688116;28;1099;-83
2023/03/13 01:26:26;;;;;;;15.25;4.40;;;;;;;11.64;63.00;99704.09;680880;28;1273;-84
2023/03/13 01:26:47;;;;;;;16.50;4.82;;;;;;;11.56;63.21;99694.47;685287;28;1126;-84
2023/03/13 01:27:10;;;;;;;19.73;5.13;;;;;;;11.60;63.00;99710.16;685488;28;1052;-84
2023/03/13 01:27:31;;;;;;;21.33;4.93;;;;;;;11.63;62.60;99694.50;693709;28;1360;-84
2023/03/13 01:27:51;;;;;;;18.25;4.85;;;;;;;11.64;62.80;99690.16;685575;28;1295;-83
2023/03/13 01:28:12;;;;;;;14.07;4.80;;;;;;;11.66;62.61;99696.28;682761;29;1450;-83
2023/03/13 01:28:34;;;;;;;13.77;4.90;;;;;;;11.62;62.39;99687.53;685613;28;1197;-83
2023/03/13 01:28:55;;;;;;;14.88;4.90;;;;;;;11.65;62.56;99691.94;690787;28;1349;-83
2023/03/13 01:29:16;;;;;;;14.82;5.30;;;;;;;11.65;62.52;99694.53;688112;28;1213;-83
2023/03/13 01:29:37;;;;;;;13.32;4.68;;;;;;;11.69;62.28;99684.97;680203;28;1079;-83
2023/03/13 01:29:58;;;;;;;13.38;4.68;;;;;;;11.69;62.34;99693.72;685647;28;1271;-84
2023/03/13 01:30:19;;;;;;;14.73;4.28;;;;;;;11.65;62.33;99687.59;687403;28;1266;-83
2023/03/13 01:30:40;;;;;;;15.20;4.40;;;;;;;11.71;62.49;99699.81;682906;28;1546;-84
2023/03/13 01:31:14;;;;;;;17.85;4.38;;;;;;;11.61;62.51;99682.31;685230;28;1239;-84
2023/03/13 01:31:35;;;;;;;17.33;4.57;;;;;;;11.66;62.65;99696.28;685580;28;891;-83
2023/03/13 01:31:56;;;;;;;16.20;4.50;;;;;;;11.68;62.26;99688.47;682780;28;1120;-83
2023/03/13 01:32:18;;;;;;;13.27;4.40;;;;;;;11.69;62.73;99691.09;688128;28;1373;-84
2023/03/13 01:32:39;;;;;;;13.55;4.20;;;;;;;11.71;62.51;99689.38;690866;28;1076;-84
2023/03/13 01:33:01;;;;;;;14.67;4.37;;;;;;;11.74;62.59;99688.50;690595;28;1105;-84
2023/03/13 01:33:21;;;;;;;14.60;4.15;;;;;;;11.69;62.66;99683.25;691067;28;780;-84
2023/03/13 01:33:42;;;;;;;13.30;4.00;;;;;;;11.73;62.41;99677.16;685544;28;1277;-84
2023/03/13 01:34:05;;;;;;;12.60;4.10;;;;;;;11.73;62.50;99685.00;682690;29;1147;-84
2023/03/13 01:34:25;;;;;;;12.75;4.25;;;;;;;11.70;62.38;99679.78;683002;29;778;-84
2023/03/13 01:34:46;;;;;;;12.63;4.55;;;;;;;11.72;62.66;99675.44;682938;29;888;-84
2023/03/13 01:35:07;;;;;;;11.68;4.40;;;;;;;11.73;62.33;99678.94;685317;28;1962;-83
2023/03/13 01:35:28;;;;;;;14.52;4.65;;;;;;;11.70;62.37;99676.28;688355;28;858;-84
2023/03/13 01:35:48;;;;;;;15.00;4.53;;;;;;;11.71;62.54;99663.22;685414;28;1226;-84
2023/03/13 01:36:10;;;;;;;12.88;4.30;;;;;;;11.74;62.45;99671.06;687985;28;1188;-83
2023/03/13 01:36:32;;;;;;;11.18;4.20;;;;;;;11.70;62.15;99660.59;688234;28;855;-83
2023/03/13 01:36:52;;;;;;;11.05;4.22;;;;;;;11.74;62.35;99673.69;685243;28;1252;-84
2023/03/13 01:37:13;;;;;;;13.33;4.40;;;;;;;11.77;62.57;99678.94;685359;28;1267;-84
2023/03/13 01:37:34;;;;;;;11.95;4.38;;;;;;;11.78;62.58;99665.00;693678;28;1316;-84
2023/03/13 01:37:54;;;;;;;11.73;4.20;;;;;;;11.83;62.34;99671.97;690809;28;1091;-84
2023/03/13 01:38:15;;;;;;;12.20;4.07;;;;;;;11.86;62.24;99677.25;683048;28;1214;-84
2023/03/13 01:38:37;;;;;;;11.87;3.80;;;;;;;11.79;62.43;99656.31;685845;28;936;-84
2023/03/13 01:38:59;;;;;;;11.05;3.70;;;;;;;11.89;62.21;99672.03;682710;28;1018;-84
2023/03/13 01:39:20;;;;;;;12.90;4.20;;;;;;;11.89;62.38;99672.03;688342;28;1260;-84
2023/03/13 01:39:41;;;;;;;14.70;4.63;;;;;;;11.82;62.27;99657.16;685701;28;1026;-84
2023/03/13 01:40:01;;;;;;;14.93;4.80;;;;;;;11.81;62.09;99653.69;685436;28;1071;-84
2023/03/13 01:40:22;;;;;;;12.05;4.50;;;;;;;11.86;62.05;99657.19;683109;28;740;-84
2023/03/13 01:40:46;;;;;;;11.60;4.38;;;;;;;11.90;61.94;99653.75;685680;28;1222;-83
2023/03/13 01:41:10;;;;;;;13.00;4.20;;;;;;;11.87;61.83;99658.06;685340;28;1344;-84
2023/03/13 01:41:31;;;;;;;14.95;4.65;;;;;;;11.91;61.90;99663.31;683093;28;1416;-84
2023/03/13 01:41:51;;;;;;;15.13;4.40;;;;;;;11.90;62.06;99642.41;683076;29;1102;-84
2023/03/13 01:42:13;;;;;;;14.93;4.60;;;;;;;11.94;61.90;99659.84;685805;28;1407;-83
2023/03/13 01:42:55;;;;;;;14.38;4.35;;;;;;;12.01;61.98;99661.63;683328;28;1280;-84
2023/03/13 01:43:19;;;;;;;17.17;4.50;;;;;;;11.99;62.02;99667.72;683177;29;1201;-83
2023/03/13 01:43:40;;;;;;;16.10;4.32;;;;;;;11.93;62.07;99660.72;688613;28;1300;-84
2023/03/13 01:44:01;;;;;;;10.47;3.80;;;;;;;11.89;62.07;99653.72;688465;28;1369;-84
2023/03/13 01:44:50;;;;;;;9.75;3.63;;;;;;;11.93;62.26;99658.13;688730;28;807;-84
2023/03/13 01:45:52;;;;;;;13.73;3.88;;;;;;;12.04;62.24;99666.00;683133;28;2119;-84